sensor_id;sensor_type;location;lat;lon;timestamp;temperature;humidity
78475;SHT31;67766;51.964;5.660;2023-04-23T00:01:39;12.7;67.9
78475;SHT31;67766;51.964;5.660;2023-04-23T00:04:11;12.7;67.8
78475;SHT31;67766;51.964;5.660;2023-04-23T00:06:41;12.8;67.6
78475;SHT31;67766;51.964;5.660;2023-04-23T00:09:14;12.8;67.4
78475;SHT31;67766;51.964;5.660;2023-04-23T00:11:44;12.8;67.0
78475;SHT31;67766;51.964;5.660;2023-04-23T00:14:14;12.8;66.8
78475;SHT31;67766;51.964;5.660;2023-04-23T00:16:47;12.9;66.7
78475;SHT31;67766;51.964;5.660;2023-04-23T00:19:17;12.9;66.6
78475;SHT31;67766;51.964;5.660;2023-04-23T00:21:47;12.9;66.7
78475;SHT31;67766;51.964;5.660;2023-04-23T00:24:17;12.9;67.0
78475;SHT31;67766;51.964;5.660;2023-04-23T00:26:46;12.9;66.8
78475;SHT31;67766;51.964;5.660;2023-04-23T00:29:16;12.9;66.5
78475;SHT31;67766;51.964;5.660;2023-04-23T00:31:45;12.9;66.4
78475;SHT31;67766;51.964;5.660;2023-04-23T00:34:15;12.8;66.4
78475;SHT31;67766;51.964;5.660;2023-04-23T00:36:44;12.8;66.3
78475;SHT31;67766;51.964;5.660;2023-04-23T00:39:14;12.8;66.4
78475;SHT31;67766;51.964;5.660;2023-04-23T00:41:44;12.8;66.4
78475;SHT31;67766;51.964;5.660;2023-04-23T00:44:14;12.8;66.4
78475;SHT31;67766;51.964;5.660;2023-04-23T00:46:45;12.7;66.5
78475;SHT31;67766;51.964;5.660;2023-04-23T00:49:16;12.7;66.5
78475;SHT31;67766;51.964;5.660;2023-04-23T00:51:48;12.7;66.8
78475;SHT31;67766;51.964;5.660;2023-04-23T00:54:18;12.7;66.6
78475;SHT31;67766;51.964;5.660;2023-04-23T00:56:48;12.6;66.7
78475;SHT31;67766;51.964;5.660;2023-04-23T00:59:19;12.6;66.9
78475;SHT31;67766;51.964;5.660;2023-04-23T01:01:49;12.6;66.7
78475;SHT31;67766;51.964;5.660;2023-04-23T01:04:20;12.6;66.8
78475;SHT31;67766;51.964;5.660;2023-04-23T01:06:51;12.6;66.9
78475;SHT31;67766;51.964;5.660;2023-04-23T01:09:21;12.5;67.1
78475;SHT31;67766;51.964;5.660;2023-04-23T01:11:51;12.5;67.3
78475;SHT31;67766;51.964;5.660;2023-04-23T01:14:21;12.5;67.6
78475;SHT31;67766;51.964;5.660;2023-04-23T01:16:51;12.4;67.8
78475;SHT31;67766;51.964;5.660;2023-04-23T01:19:21;12.4;68.0
78475;SHT31;67766;51.964;5.660;2023-04-23T01:21:50;12.4;68.1
78475;SHT31;67766;51.964;5.660;2023-04-23T01:24:20;12.4;68.2
78475;SHT31;67766;51.964;5.660;2023-04-23T01:26:50;12.4;68.3
78475;SHT31;67766;51.964;5.660;2023-04-23T01:29:20;12.4;68.1
78475;SHT31;67766;51.964;5.660;2023-04-23T01:31:50;12.4;67.9
78475;SHT31;67766;51.964;5.660;2023-04-23T01:34:21;12.4;67.9
78475;SHT31;67766;51.964;5.660;2023-04-23T01:36:52;12.4;67.7
78475;SHT31;67766;51.964;5.660;2023-04-23T01:39:24;12.4;67.9
78475;SHT31;67766;51.964;5.660;2023-04-23T01:41:54;12.3;68.1
78475;SHT31;67766;51.964;5.660;2023-04-23T01:44:24;12.3;68.1
78475;SHT31;67766;51.964;5.660;2023-04-23T01:46:53;12.3;67.9
78475;SHT31;67766;51.964;5.660;2023-04-23T01:49:24;12.2;68.3
78475;SHT31;67766;51.964;5.660;2023-04-23T01:51:53;12.2;68.6
78475;SHT31;67766;51.964;5.660;2023-04-23T01:54:23;12.2;68.6
78475;SHT31;67766;51.964;5.660;2023-04-23T01:56:53;12.2;68.6
78475;SHT31;67766;51.964;5.660;2023-04-23T01:59:25;12.2;68.6
78475;SHT31;67766;51.964;5.660;2023-04-23T02:01:54;12.2;68.6
78475;SHT31;67766;51.964;5.660;2023-04-23T02:04:24;12.2;68.6
78475;SHT31;67766;51.964;5.660;2023-04-23T02:06:54;12.2;68.4
78475;SHT31;67766;51.964;5.660;2023-04-23T02:09:24;12.2;68.3
78475;SHT31;67766;51.964;5.660;2023-04-23T02:11:53;12.2;68.3
78475;SHT31;67766;51.964;5.660;2023-04-23T02:14:24;12.2;68.5
78475;SHT31;67766;51.964;5.660;2023-04-23T02:16:53;12.2;68.6
78475;SHT31;67766;51.964;5.660;2023-04-23T02:19:26;12.2;68.7
78475;SHT31;67766;51.964;5.660;2023-04-23T02:21:58;12.2;68.5
78475;SHT31;67766;51.964;5.660;2023-04-23T02:24:28;12.2;68.6
78475;SHT31;67766;51.964;5.660;2023-04-23T02:26:57;12.2;68.7
78475;SHT31;67766;51.964;5.660;2023-04-23T02:29:27;12.2;68.8
78475;SHT31;67766;51.964;5.660;2023-04-23T02:31:57;12.2;68.8
78475;SHT31;67766;51.964;5.660;2023-04-23T02:34:27;12.1;68.9
78475;SHT31;67766;51.964;5.660;2023-04-23T02:36:56;12.1;69.1
78475;SHT31;67766;51.964;5.660;2023-04-23T02:39:27;12.1;69.5
78475;SHT31;67766;51.964;5.660;2023-04-23T02:41:56;12.0;69.5
78475;SHT31;67766;51.964;5.660;2023-04-23T02:44:27;12.0;69.5
78475;SHT31;67766;51.964;5.660;2023-04-23T02:46:56;12.0;69.5
78475;SHT31;67766;51.964;5.660;2023-04-23T02:49:26;12.0;69.7
78475;SHT31;67766;51.964;5.660;2023-04-23T02:51:56;12.0;69.7
78475;SHT31;67766;51.964;5.660;2023-04-23T02:54:25;12.0;69.8
78475;SHT31;67766;51.964;5.660;2023-04-23T02:56:55;11.9;69.8
78475;SHT31;67766;51.964;5.660;2023-04-23T02:59:25;11.9;69.9
78475;SHT31;67766;51.964;5.660;2023-04-23T03:01:54;11.9;70.0
78475;SHT31;67766;51.964;5.660;2023-04-23T03:04:24;11.9;70.1
78475;SHT31;67766;51.964;5.660;2023-04-23T03:06:54;11.9;70.2
78475;SHT31;67766;51.964;5.660;2023-04-23T03:09:24;11.8;70.3
78475;SHT31;67766;51.964;5.660;2023-04-23T03:11:55;11.8;70.4
78475;SHT31;67766;51.964;5.660;2023-04-23T03:14:25;11.8;70.3
78475;SHT31;67766;51.964;5.660;2023-04-23T03:16:55;11.8;70.3
78475;SHT31;67766;51.964;5.660;2023-04-23T03:19:25;11.8;70.4
78475;SHT31;67766;51.964;5.660;2023-04-23T03:21:54;11.8;70.4
78475;SHT31;67766;51.964;5.660;2023-04-23T03:24:24;11.8;70.5
78475;SHT31;67766;51.964;5.660;2023-04-23T03:26:53;11.8;70.2
78475;SHT31;67766;51.964;5.660;2023-04-23T03:29:23;11.8;70.1
78475;SHT31;67766;51.964;5.660;2023-04-23T03:31:53;11.8;70.2
78475;SHT31;67766;51.964;5.660;2023-04-23T03:34:23;11.8;70.3
78475;SHT31;67766;51.964;5.660;2023-04-23T03:36:53;11.8;70.3
78475;SHT31;67766;51.964;5.660;2023-04-23T03:39:22;11.8;70.4
78475;SHT31;67766;51.964;5.660;2023-04-23T03:41:52;11.8;70.3
78475;SHT31;67766;51.964;5.660;2023-04-23T03:44:21;11.8;70.1
78475;SHT31;67766;51.964;5.660;2023-04-23T03:46:51;11.8;70.2
78475;SHT31;67766;51.964;5.660;2023-04-23T03:49:21;11.8;70.3
78475;SHT31;67766;51.964;5.660;2023-04-23T03:51:53;11.8;70.3
78475;SHT31;67766;51.964;5.660;2023-04-23T03:54:22;11.8;70.3
78475;SHT31;67766;51.964;5.660;2023-04-23T03:56:54;11.8;70.3
78475;SHT31;67766;51.964;5.660;2023-04-23T03:59:24;11.9;70.4
78475;SHT31;67766;51.964;5.660;2023-04-23T04:01:53;11.9;70.2
78475;SHT31;67766;51.964;5.660;2023-04-23T04:04:24;11.9;70.2
78475;SHT31;67766;51.964;5.660;2023-04-23T04:06:54;11.9;70.2
78475;SHT31;67766;51.964;5.660;2023-04-23T04:09:24;11.9;70.0
78475;SHT31;67766;51.964;5.660;2023-04-23T04:11:54;11.9;70.0
78475;SHT31;67766;51.964;5.660;2023-04-23T04:14:24;11.9;69.9
78475;SHT31;67766;51.964;5.660;2023-04-23T04:16:53;11.9;69.9
78475;SHT31;67766;51.964;5.660;2023-04-23T04:19:23;11.9;69.7
78475;SHT31;67766;51.964;5.660;2023-04-23T04:21:53;12.0;69.6
78475;SHT31;67766;51.964;5.660;2023-04-23T04:24:22;12.0;69.5
78475;SHT31;67766;51.964;5.660;2023-04-23T04:26:53;12.0;69.6
78475;SHT31;67766;51.964;5.660;2023-04-23T04:29:23;12.0;69.5
78475;SHT31;67766;51.964;5.660;2023-04-23T04:31:53;12.0;69.4
78475;SHT31;67766;51.964;5.660;2023-04-23T04:34:23;12.0;69.5
78475;SHT31;67766;51.964;5.660;2023-04-23T04:36:53;12.0;69.6
78475;SHT31;67766;51.964;5.660;2023-04-23T04:39:25;12.0;69.6
78475;SHT31;67766;51.964;5.660;2023-04-23T04:41:55;12.0;69.8
78475;SHT31;67766;51.964;5.660;2023-04-23T04:44:26;12.0;69.8
78475;SHT31;67766;51.964;5.660;2023-04-23T04:46:56;12.0;69.8
78475;SHT31;67766;51.964;5.660;2023-04-23T04:49:28;12.0;69.9
78475;SHT31;67766;51.964;5.660;2023-04-23T04:51:58;12.0;70.0
78475;SHT31;67766;51.964;5.660;2023-04-23T04:54:28;12.0;70.1
78475;SHT31;67766;51.964;5.660;2023-04-23T04:56:58;12.1;70.1
78475;SHT31;67766;51.964;5.660;2023-04-23T04:59:28;12.1;70.3
78475;SHT31;67766;51.964;5.660;2023-04-23T05:01:58;12.1;70.3
78475;SHT31;67766;51.964;5.660;2023-04-23T05:04:28;12.1;70.4
78475;SHT31;67766;51.964;5.660;2023-04-23T05:06:57;12.1;70.5
78475;SHT31;67766;51.964;5.660;2023-04-23T05:09:27;12.1;70.5
78475;SHT31;67766;51.964;5.660;2023-04-23T05:11:56;12.2;70.5
78475;SHT31;67766;51.964;5.660;2023-04-23T05:14:28;12.2;70.4
78475;SHT31;67766;51.964;5.660;2023-04-23T05:16:57;12.2;70.4
78475;SHT31;67766;51.964;5.660;2023-04-23T05:19:27;12.2;70.3
78475;SHT31;67766;51.964;5.660;2023-04-23T05:21:56;12.2;70.3
78475;SHT31;67766;51.964;5.660;2023-04-23T05:24:26;12.2;70.3
78475;SHT31;67766;51.964;5.660;2023-04-23T05:26:55;12.2;70.4
78475;SHT31;67766;51.964;5.660;2023-04-23T05:29:25;12.2;70.4
78475;SHT31;67766;51.964;5.660;2023-04-23T05:31:57;12.2;70.6
78475;SHT31;67766;51.964;5.660;2023-04-23T05:34:26;12.2;70.5
78475;SHT31;67766;51.964;5.660;2023-04-23T05:36:56;12.2;70.6
78475;SHT31;67766;51.964;5.660;2023-04-23T05:39:25;12.2;70.8
78475;SHT31;67766;51.964;5.660;2023-04-23T05:41:55;12.2;70.8
78475;SHT31;67766;51.964;5.660;2023-04-23T05:44:24;12.3;70.8
78475;SHT31;67766;51.964;5.660;2023-04-23T05:46:54;12.3;70.9
78475;SHT31;67766;51.964;5.660;2023-04-23T05:49:24;12.3;70.9
78475;SHT31;67766;51.964;5.660;2023-04-23T05:51:53;12.3;71.2
78475;SHT31;67766;51.964;5.660;2023-04-23T05:54:25;12.3;71.3
78475;SHT31;67766;51.964;5.660;2023-04-23T05:56:54;12.3;75.4
78475;SHT31;67766;51.964;5.660;2023-04-23T05:59:24;12.4;72.4
78475;SHT31;67766;51.964;5.660;2023-04-23T06:01:54;12.5;72.8
78475;SHT31;67766;51.964;5.660;2023-04-23T06:04:24;12.6;72.9
78475;SHT31;67766;51.964;5.660;2023-04-23T06:06:54;12.7;71.8
78475;SHT31;67766;51.964;5.660;2023-04-23T06:09:24;12.9;72.5
78475;SHT31;67766;51.964;5.660;2023-04-23T06:11:53;13.0;72.4
78475;SHT31;67766;51.964;5.660;2023-04-23T06:14:23;13.2;71.9
78475;SHT31;67766;51.964;5.660;2023-04-23T06:16:52;13.4;71.8
78475;SHT31;67766;51.964;5.660;2023-04-23T06:19:22;13.6;70.3
78475;SHT31;67766;51.964;5.660;2023-04-23T06:21:55;13.7;69.4
78475;SHT31;67766;51.964;5.660;2023-04-23T06:24:25;13.8;69.0
78475;SHT31;67766;51.964;5.660;2023-04-23T06:26:54;13.8;68.2
78475;SHT31;67766;51.964;5.660;2023-04-23T06:29:27;13.9;68.4
78475;SHT31;67766;51.964;5.660;2023-04-23T06:32:00;13.9;69.8
78475;SHT31;67766;51.964;5.660;2023-04-23T06:34:31;13.9;69.4
78475;SHT31;67766;51.964;5.660;2023-04-23T06:37:01;14.0;71.0
78475;SHT31;67766;51.964;5.660;2023-04-23T06:39:32;14.1;69.4
78475;SHT31;67766;51.964;5.660;2023-04-23T06:42:02;14.2;68.4
78475;SHT31;67766;51.964;5.660;2023-04-23T06:44:32;14.3;68.5
78475;SHT31;67766;51.964;5.660;2023-04-23T06:47:01;14.3;68.0
78475;SHT31;67766;51.964;5.660;2023-04-23T06:49:31;14.4;68.1
78475;SHT31;67766;51.964;5.660;2023-04-23T06:52:01;14.4;68.5
78475;SHT31;67766;51.964;5.660;2023-04-23T06:54:30;14.5;67.7
78475;SHT31;67766;51.964;5.660;2023-04-23T06:57:00;14.6;67.4
78475;SHT31;67766;51.964;5.660;2023-04-23T06:59:29;14.7;67.2
78475;SHT31;67766;51.964;5.660;2023-04-23T07:01:59;14.8;68.3
78475;SHT31;67766;51.964;5.660;2023-04-23T07:04:28;14.9;67.0
78475;SHT31;67766;51.964;5.660;2023-04-23T07:06:58;14.9;67.3
78475;SHT31;67766;51.964;5.660;2023-04-23T07:09:28;15.0;66.6
78475;SHT31;67766;51.964;5.660;2023-04-23T07:11:58;15.1;65.7
78475;SHT31;67766;51.964;5.660;2023-04-23T07:14:28;15.1;65.5
78475;SHT31;67766;51.964;5.660;2023-04-23T07:16:57;15.2;65.2
78475;SHT31;67766;51.964;5.660;2023-04-23T07:19:27;15.2;64.8
78475;SHT31;67766;51.964;5.660;2023-04-23T07:21:57;15.3;65.4
78475;SHT31;67766;51.964;5.660;2023-04-23T07:24:27;15.3;64.6
78475;SHT31;67766;51.964;5.660;2023-04-23T07:26:56;15.4;64.7
78475;SHT31;67766;51.964;5.660;2023-04-23T07:29:27;15.5;65.8
78475;SHT31;67766;51.964;5.660;2023-04-23T07:31:57;15.6;65.6
78475;SHT31;67766;51.964;5.660;2023-04-23T07:34:26;15.7;65.9
78475;SHT31;67766;51.964;5.660;2023-04-23T07:36:57;15.8;63.7
78475;SHT31;67766;51.964;5.660;2023-04-23T07:39:26;15.9;63.3
78475;SHT31;67766;51.964;5.660;2023-04-23T07:41:56;16.0;62.6
78475;SHT31;67766;51.964;5.660;2023-04-23T07:44:25;16.1;63.2
78475;SHT31;67766;51.964;5.660;2023-04-23T07:46:55;16.2;61.7
78475;SHT31;67766;51.964;5.660;2023-04-23T07:49:27;16.3;61.3
78475;SHT31;67766;51.964;5.660;2023-04-23T07:51:57;16.4;61.4
78475;SHT31;67766;51.964;5.660;2023-04-23T07:54:28;16.5;60.2
78475;SHT31;67766;51.964;5.660;2023-04-23T07:56:58;16.6;59.6
78475;SHT31;67766;51.964;5.660;2023-04-23T07:59:29;16.7;60.2
78475;SHT31;67766;51.964;5.660;2023-04-23T08:01:58;16.7;60.2
78475;SHT31;67766;51.964;5.660;2023-04-23T08:04:28;16.8;59.7
78475;SHT31;67766;51.964;5.660;2023-04-23T08:06:58;16.9;58.9
78475;SHT31;67766;51.964;5.660;2023-04-23T08:09:27;16.9;58.3
78475;SHT31;67766;51.964;5.660;2023-04-23T08:11:57;17.0;58.4
78475;SHT31;67766;51.964;5.660;2023-04-23T08:14:28;17.1;57.9
78475;SHT31;67766;51.964;5.660;2023-04-23T08:16:57;17.1;58.5
78475;SHT31;67766;51.964;5.660;2023-04-23T08:19:27;17.2;58.6
78475;SHT31;67766;51.964;5.660;2023-04-23T08:22:00;17.3;59.1
78475;SHT31;67766;51.964;5.660;2023-04-23T08:24:31;17.5;57.9
78475;SHT31;67766;51.964;5.660;2023-04-23T08:27:00;17.7;57.0
78475;SHT31;67766;51.964;5.660;2023-04-23T08:29:30;17.8;56.0
78475;SHT31;67766;51.964;5.660;2023-04-23T08:32:00;17.9;55.8
78475;SHT31;67766;51.964;5.660;2023-04-23T08:34:29;18.0;57.4
78475;SHT31;67766;51.964;5.660;2023-04-23T08:36:59;18.1;57.6
78475;SHT31;67766;51.964;5.660;2023-04-23T08:39:28;18.3;56.7
78475;SHT31;67766;51.964;5.660;2023-04-23T08:42:06;18.5;55.3
78475;SHT31;67766;51.964;5.660;2023-04-23T08:44:40;18.7;54.7
78475;SHT31;67766;51.964;5.660;2023-04-23T08:47:18;18.8;55.4
78475;SHT31;67766;51.964;5.660;2023-04-23T08:49:53;18.9;54.1
78475;SHT31;67766;51.964;5.660;2023-04-23T08:52:26;19.1;53.4
78475;SHT31;67766;51.964;5.660;2023-04-23T08:54:59;19.2;53.7
78475;SHT31;67766;51.964;5.660;2023-04-23T08:57:30;19.3;52.3
78475;SHT31;67766;51.964;5.660;2023-04-23T09:00:02;19.4;52.3
78475;SHT31;67766;51.964;5.660;2023-04-23T09:02:35;19.5;53.5
78475;SHT31;67766;51.964;5.660;2023-04-23T09:05:05;19.6;54.1
78475;SHT31;67766;51.964;5.660;2023-04-23T09:07:36;19.9;50.9
78475;SHT31;67766;51.964;5.660;2023-04-23T09:10:07;20.1;50.6
78475;SHT31;67766;51.964;5.660;2023-04-23T09:12:41;20.2;49.3
78475;SHT31;67766;51.964;5.660;2023-04-23T09:15:12;20.3;49.4
78475;SHT31;67766;51.964;5.660;2023-04-23T09:17:44;20.3;49.2
78475;SHT31;67766;51.964;5.660;2023-04-23T09:20:15;20.4;49.4
78475;SHT31;67766;51.964;5.660;2023-04-23T09:22:46;20.4;48.5
78475;SHT31;67766;51.964;5.660;2023-04-23T09:25:18;20.5;48.0
78475;SHT31;67766;51.964;5.660;2023-04-23T09:27:49;20.5;47.6
78475;SHT31;67766;51.964;5.660;2023-04-23T09:30:19;20.6;47.0
78475;SHT31;67766;51.964;5.660;2023-04-23T09:32:52;20.6;48.1
78475;SHT31;67766;51.964;5.660;2023-04-23T09:35:21;20.6;48.0
78475;SHT31;67766;51.964;5.660;2023-04-23T09:37:51;20.7;47.4
78475;SHT31;67766;51.964;5.660;2023-04-23T09:40:22;20.7;47.1
78475;SHT31;67766;51.964;5.660;2023-04-23T09:42:52;20.8;47.5
78475;SHT31;67766;51.964;5.660;2023-04-23T09:45:22;20.9;47.7
78475;SHT31;67766;51.964;5.660;2023-04-23T09:47:55;21.0;45.3
78475;SHT31;67766;51.964;5.660;2023-04-23T09:50:33;21.2;45.7
78475;SHT31;67766;51.964;5.660;2023-04-23T09:53:07;21.3;43.1
78475;SHT31;67766;51.964;5.660;2023-04-23T09:55:38;21.3;43.8
78475;SHT31;67766;51.964;5.660;2023-04-23T09:58:13;21.3;44.8
78475;SHT31;67766;51.964;5.660;2023-04-23T10:00:43;21.4;44.6
78475;SHT31;67766;51.964;5.660;2023-04-23T10:03:14;21.4;45.3
78475;SHT31;67766;51.964;5.660;2023-04-23T10:05:43;21.4;44.3
78475;SHT31;67766;51.964;5.660;2023-04-23T10:08:14;21.5;43.8
78475;SHT31;67766;51.964;5.660;2023-04-23T10:10:46;21.6;44.3
78475;SHT31;67766;51.964;5.660;2023-04-23T10:13:17;21.7;43.3
78475;SHT31;67766;51.964;5.660;2023-04-23T10:15:47;21.9;42.5
78475;SHT31;67766;51.964;5.660;2023-04-23T10:18:21;22.1;41.2
78475;SHT31;67766;51.964;5.660;2023-04-23T10:20:51;22.1;40.6
78475;SHT31;67766;51.964;5.660;2023-04-23T10:23:22;22.1;42.3
78475;SHT31;67766;51.964;5.660;2023-04-23T10:25:54;22.2;40.3
78475;SHT31;67766;51.964;5.660;2023-04-23T10:28:26;22.1;40.1
78475;SHT31;67766;51.964;5.660;2023-04-23T10:30:58;21.9;42.1
78475;SHT31;67766;51.964;5.660;2023-04-23T10:33:30;21.8;41.8
78475;SHT31;67766;51.964;5.660;2023-04-23T10:36:00;21.7;41.1
78475;SHT31;67766;51.964;5.660;2023-04-23T10:38:32;21.6;40.6
78475;SHT31;67766;51.964;5.660;2023-04-23T10:41:03;21.5;41.0
78475;SHT31;67766;51.964;5.660;2023-04-23T10:43:34;21.2;40.8
78475;SHT31;67766;51.964;5.660;2023-04-23T10:46:28;21.0;40.6
78475;SHT31;67766;51.964;5.660;2023-04-23T10:49:07;20.8;39.8
78475;SHT31;67766;51.964;5.660;2023-04-23T10:51:37;20.6;41.2
78475;SHT31;67766;51.964;5.660;2023-04-23T10:54:07;20.5;41.5
78475;SHT31;67766;51.964;5.660;2023-04-23T10:56:39;20.4;41.7
78475;SHT31;67766;51.964;5.660;2023-04-23T10:59:19;20.3;42.4
78475;SHT31;67766;51.964;5.660;2023-04-23T11:01:49;20.3;42.5
78475;SHT31;67766;51.964;5.660;2023-04-23T11:04:24;20.2;41.4
78475;SHT31;67766;51.964;5.660;2023-04-23T11:06:57;20.3;42.0
78475;SHT31;67766;51.964;5.660;2023-04-23T11:09:36;20.3;41.7
78475;SHT31;67766;51.964;5.660;2023-04-23T11:12:09;20.3;42.9
78475;SHT31;67766;51.964;5.660;2023-04-23T11:14:48;20.3;42.9
78475;SHT31;67766;51.964;5.660;2023-04-23T11:17:22;20.3;41.5
78475;SHT31;67766;51.964;5.660;2023-04-23T11:20:09;20.2;41.9
78475;SHT31;67766;51.964;5.660;2023-04-23T11:22:42;20.2;42.9
78475;SHT31;67766;51.964;5.660;2023-04-23T11:25:14;20.2;43.3
78475;SHT31;67766;51.964;5.660;2023-04-23T11:27:44;20.2;42.1
78475;SHT31;67766;51.964;5.660;2023-04-23T11:30:16;20.2;42.3
78475;SHT31;67766;51.964;5.660;2023-04-23T11:32:48;20.2;42.0
78475;SHT31;67766;51.964;5.660;2023-04-23T11:35:20;20.2;44.0
78475;SHT31;67766;51.964;5.660;2023-04-23T11:37:50;20.2;43.7
78475;SHT31;67766;51.964;5.660;2023-04-23T11:40:21;20.2;43.8
78475;SHT31;67766;51.964;5.660;2023-04-23T11:42:52;20.2;44.2
78475;SHT31;67766;51.964;5.660;2023-04-23T11:45:25;20.3;44.0
78475;SHT31;67766;51.964;5.660;2023-04-23T11:47:57;20.3;43.4
78475;SHT31;67766;51.964;5.660;2023-04-23T11:50:28;20.3;43.7
78475;SHT31;67766;51.964;5.660;2023-04-23T11:53:03;20.3;44.2
78475;SHT31;67766;51.964;5.660;2023-04-23T11:55:33;20.3;43.7
78475;SHT31;67766;51.964;5.660;2023-04-23T11:58:05;20.3;43.0
78475;SHT31;67766;51.964;5.660;2023-04-23T12:00:34;20.2;43.3
78475;SHT31;67766;51.964;5.660;2023-04-23T12:03:04;20.2;44.4
78475;SHT31;67766;51.964;5.660;2023-04-23T12:05:38;20.2;45.1
78475;SHT31;67766;51.964;5.660;2023-04-23T12:08:10;20.2;45.0
78475;SHT31;67766;51.964;5.660;2023-04-23T12:10:46;20.2;45.2
78475;SHT31;67766;51.964;5.660;2023-04-23T12:13:20;20.2;44.1
78475;SHT31;67766;51.964;5.660;2023-04-23T12:15:55;20.2;43.6
78475;SHT31;67766;51.964;5.660;2023-04-23T12:18:28;20.2;44.0
78475;SHT31;67766;51.964;5.660;2023-04-23T12:21:06;20.2;44.4
78475;SHT31;67766;51.964;5.660;2023-04-23T12:23:37;20.3;45.0
78475;SHT31;67766;51.964;5.660;2023-04-23T12:26:12;20.3;45.8
78475;SHT31;67766;51.964;5.660;2023-04-23T12:28:48;20.3;45.6
78475;SHT31;67766;51.964;5.660;2023-04-23T12:31:21;20.4;44.0
78475;SHT31;67766;51.964;5.660;2023-04-23T12:33:55;20.4;43.0
78475;SHT31;67766;51.964;5.660;2023-04-23T12:36:30;20.4;43.2
78475;SHT31;67766;51.964;5.660;2023-04-23T12:39:25;20.3;44.1
78475;SHT31;67766;51.964;5.660;2023-04-23T12:41:57;20.3;43.2
78475;SHT31;67766;51.964;5.660;2023-04-23T12:44:29;20.3;43.5
78475;SHT31;67766;51.964;5.660;2023-04-23T12:47:02;20.2;44.7
78475;SHT31;67766;51.964;5.660;2023-04-23T12:49:35;20.2;44.7
78475;SHT31;67766;51.964;5.660;2023-04-23T12:52:05;20.2;44.4
78475;SHT31;67766;51.964;5.660;2023-04-23T12:54:37;20.2;45.0
78475;SHT31;67766;51.964;5.660;2023-04-23T12:57:12;20.2;45.0
78475;SHT31;67766;51.964;5.660;2023-04-23T12:59:42;20.2;44.3
78475;SHT31;67766;51.964;5.660;2023-04-23T13:02:11;20.2;44.5
78475;SHT31;67766;51.964;5.660;2023-04-23T13:04:41;20.2;43.9
78475;SHT31;67766;51.964;5.660;2023-04-23T13:07:11;20.2;44.4
78475;SHT31;67766;51.964;5.660;2023-04-23T13:09:40;20.2;45.5
78475;SHT31;67766;51.964;5.660;2023-04-23T13:12:10;20.2;45.1
78475;SHT31;67766;51.964;5.660;2023-04-23T13:14:39;20.2;44.8
78475;SHT31;67766;51.964;5.660;2023-04-23T13:17:09;20.2;44.7
78475;SHT31;67766;51.964;5.660;2023-04-23T13:19:39;20.2;44.8
78475;SHT31;67766;51.964;5.660;2023-04-23T13:22:09;20.2;44.1
78475;SHT31;67766;51.964;5.660;2023-04-23T13:24:39;20.1;43.3
78475;SHT31;67766;51.964;5.660;2023-04-23T13:27:08;20.1;44.2
78475;SHT31;67766;51.964;5.660;2023-04-23T13:29:38;20.1;43.8
78475;SHT31;67766;51.964;5.660;2023-04-23T13:32:08;20.1;44.0
78475;SHT31;67766;51.964;5.660;2023-04-23T13:34:38;20.1;44.1
78475;SHT31;67766;51.964;5.660;2023-04-23T13:37:07;20.1;44.2
78475;SHT31;67766;51.964;5.660;2023-04-23T13:39:38;20.1;45.1
78475;SHT31;67766;51.964;5.660;2023-04-23T13:42:07;20.1;44.4
78475;SHT31;67766;51.964;5.660;2023-04-23T13:44:37;20.1;45.5
78475;SHT31;67766;51.964;5.660;2023-04-23T13:47:09;20.1;44.4
78475;SHT31;67766;51.964;5.660;2023-04-23T13:49:38;20.1;44.5
78475;SHT31;67766;51.964;5.660;2023-04-23T13:52:10;20.1;45.0
78475;SHT31;67766;51.964;5.660;2023-04-23T13:54:39;20.2;45.7
78475;SHT31;67766;51.964;5.660;2023-04-23T13:57:11;20.2;45.1
78475;SHT31;67766;51.964;5.660;2023-04-23T13:59:40;20.2;44.5
78475;SHT31;67766;51.964;5.660;2023-04-23T14:02:10;20.3;44.6
78475;SHT31;67766;51.964;5.660;2023-04-23T14:04:40;20.3;43.3
78475;SHT31;67766;51.964;5.660;2023-04-23T14:07:09;20.3;44.2
78475;SHT31;67766;51.964;5.660;2023-04-23T14:09:39;20.3;44.5
78475;SHT31;67766;51.964;5.660;2023-04-23T14:12:09;20.3;44.3
78475;SHT31;67766;51.964;5.660;2023-04-23T14:14:39;20.3;44.7
78475;SHT31;67766;51.964;5.660;2023-04-23T14:17:08;20.3;44.5
78475;SHT31;67766;51.964;5.660;2023-04-23T14:19:40;20.2;43.8
78475;SHT31;67766;51.964;5.660;2023-04-23T14:22:09;20.2;44.6
78475;SHT31;67766;51.964;5.660;2023-04-23T14:24:44;20.2;44.1
78475;SHT31;67766;51.964;5.660;2023-04-23T14:27:14;20.2;45.0
78475;SHT31;67766;51.964;5.660;2023-04-23T14:29:51;20.1;44.5
78475;SHT31;67766;51.964;5.660;2023-04-23T14:32:25;20.1;43.2
78475;SHT31;67766;51.964;5.660;2023-04-23T14:34:55;20.0;43.4
78475;SHT31;67766;51.964;5.660;2023-04-23T14:37:25;20.0;44.1
78475;SHT31;67766;51.964;5.660;2023-04-23T14:39:54;19.9;45.0
78475;SHT31;67766;51.964;5.660;2023-04-23T14:42:24;19.9;45.3
78475;SHT31;67766;51.964;5.660;2023-04-23T14:44:53;19.9;44.4
78475;SHT31;67766;51.964;5.660;2023-04-23T14:47:26;19.8;44.9
78475;SHT31;67766;51.964;5.660;2023-04-23T14:49:56;19.7;46.5
78475;SHT31;67766;51.964;5.660;2023-04-23T14:52:27;19.6;45.8
78475;SHT31;67766;51.964;5.660;2023-04-23T14:54:58;19.5;46.5
78475;SHT31;67766;51.964;5.660;2023-04-23T14:57:27;19.3;47.4
78475;SHT31;67766;51.964;5.660;2023-04-23T14:59:57;19.0;50.5
78475;SHT31;67766;51.964;5.660;2023-04-23T15:02:27;18.5;52.4
78475;SHT31;67766;51.964;5.660;2023-04-23T15:04:57;18.0;54.2
78475;SHT31;67766;51.964;5.660;2023-04-23T15:07:27;17.5;55.8
78475;SHT31;67766;51.964;5.660;2023-04-23T15:09:59;17.1;57.3
78475;SHT31;67766;51.964;5.660;2023-04-23T15:13:29;16.9;58.8
78475;SHT31;67766;51.964;5.660;2023-04-23T15:16:01;16.7;60.1
78475;SHT31;67766;51.964;5.660;2023-04-23T15:18:32;16.6;60.1
78475;SHT31;67766;51.964;5.660;2023-04-23T15:21:02;16.5;60.0
78475;SHT31;67766;51.964;5.660;2023-04-23T15:23:32;16.4;60.6
78475;SHT31;67766;51.964;5.660;2023-04-23T15:26:02;16.4;61.1
78475;SHT31;67766;51.964;5.660;2023-04-23T15:28:32;16.3;61.2
78475;SHT31;67766;51.964;5.660;2023-04-23T15:31:02;16.3;62.6
78475;SHT31;67766;51.964;5.660;2023-04-23T15:33:32;16.2;62.5
78475;SHT31;67766;51.964;5.660;2023-04-23T15:36:02;16.1;64.3
78475;SHT31;67766;51.964;5.660;2023-04-23T15:38:34;16.0;65.4
78475;SHT31;67766;51.964;5.660;2023-04-23T15:41:04;16.0;64.9
78475;SHT31;67766;51.964;5.660;2023-04-23T15:43:34;16.0;63.2
78475;SHT31;67766;51.964;5.660;2023-04-23T15:46:03;15.9;62.8
78475;SHT31;67766;51.964;5.660;2023-04-23T15:48:33;15.8;63.0
78475;SHT31;67766;51.964;5.660;2023-04-23T15:51:03;15.8;64.3
78475;SHT31;67766;51.964;5.660;2023-04-23T15:53:32;15.7;64.8
78475;SHT31;67766;51.964;5.660;2023-04-23T15:56:02;15.7;64.3
78475;SHT31;67766;51.964;5.660;2023-04-23T15:58:32;15.7;65.3
78475;SHT31;67766;51.964;5.660;2023-04-23T16:01:02;15.7;64.8
78475;SHT31;67766;51.964;5.660;2023-04-23T16:03:33;15.8;64.5
78475;SHT31;67766;51.964;5.660;2023-04-23T16:06:03;15.8;64.8
78475;SHT31;67766;51.964;5.660;2023-04-23T16:08:34;15.8;64.8
78475;SHT31;67766;51.964;5.660;2023-04-23T16:11:04;15.9;65.0
78475;SHT31;67766;51.964;5.660;2023-04-23T16:13:35;15.9;65.0
78475;SHT31;67766;51.964;5.660;2023-04-23T16:16:06;15.9;65.1
78475;SHT31;67766;51.964;5.660;2023-04-23T16:18:36;16.0;65.1
78475;SHT31;67766;51.964;5.660;2023-04-23T16:21:06;16.0;65.1
78475;SHT31;67766;51.964;5.660;2023-04-23T16:23:35;16.1;65.3
78475;SHT31;67766;51.964;5.660;2023-04-23T16:26:05;16.1;65.2